Time;durP1;ratioP1;P1;durP2;ratioP2;P2;SDS_P1;SDS_P2;PMS_P1;PMS_P2;Temp;Humidity;BMP_temperature;BMP_pressure;BME280_temperature;BME280_humidity;BME280_pressure;Samples;Min_cycle;Max_cycle;Signal;HPM_P1;HPM_P2
2023/03/12 00:01:52;;;;;;;;;;;3.20;56.00;;;;;;5009016;28;19913;-92
2023/03/12 00:04:17;;;;;;;;;;;3.20;55.90;;;;;;5005459;28;20280;-90
2023/03/12 00:06:43;;;;;;;;;;;3.20;55.70;;;;;;4991671;28;19910;-89
2023/03/12 00:09:08;;;;;;;;;;;3.30;55.50;;;;;;4992244;28;20049;-91
2023/03/12 00:11:34;;;;;;;;;;;3.20;55.40;;;;;;5009484;28;19959;-88
2023/03/12 00:13:59;;;;;;;;;;;3.20;55.20;;;;;;4991423;28;20391;-90
2023/03/12 00:16:25;;;;;;;;;;;3.20;55.00;;;;;;5009675;28;19949;-89
2023/03/12 00:18:51;;;;;;;;;;;3.20;54.80;;;;;;5008981;28;20356;-93
2023/03/12 00:21:19;;;;;;;;;;;3.20;54.60;;;;;;4974664;28;19956;-93
2023/03/12 00:23:45;;;;;;;;;;;3.10;54.50;;;;;;4989329;28;19922;-89
2023/03/12 00:26:12;;;;;;;;;;;3.10;54.40;;;;;;4989999;28;20033;-90
2023/03/12 00:28:38;;;;;;;;;;;3.00;54.30;;;;;;4972701;28;20005;-92
2023/03/12 00:31:12;;;;;;;;;;;3.00;54.20;;;;;;4974056;28;20296;-91
2023/03/12 00:33:39;;;;;;;;;;;3.00;54.30;;;;;;4976500;28;19968;-91
2023/03/12 00:36:05;;;;;;;;;;;3.00;54.30;;;;;;4976221;28;19920;-93
2023/03/12 00:38:31;;;;;;;;;;;2.90;54.20;;;;;;4975624;28;20645;-89
2023/03/12 00:40:56;;;;;;;;;;;2.90;54.10;;;;;;4975965;28;19913;-90
2023/03/12 00:43:22;;;;;;;;;;;2.80;54.00;;;;;;4976142;28;19949;-93
2023/03/12 00:45:48;;;;;;;;;;;2.80;53.90;;;;;;4975749;28;19961;-89
2023/03/12 00:48:14;;;;;;;;;;;2.70;53.70;;;;;;4993295;28;19984;-93
2023/03/12 00:50:40;;;;;;;;;;;2.70;53.70;;;;;;4976607;28;19965;-92
2023/03/12 00:53:06;;;;;;;;;;;2.70;53.70;;;;;;4994278;28;19914;-92
2023/03/12 00:55:32;;;;;;;;;;;2.70;53.70;;;;;;4976239;28;20241;-88
2023/03/12 00:57:57;;;;;;;;;;;2.60;53.60;;;;;;4993611;28;19922;-89
2023/03/12 01:00:23;;;;;;;;;;;2.60;53.60;;;;;;4993480;28;19921;-93
2023/03/12 01:02:48;;;;;;;;;;;2.60;53.70;;;;;;4993148;28;19928;-88
2023/03/12 01:05:14;;;;;;;;;;;2.60;53.60;;;;;;4975856;28;19964;-91
2023/03/12 01:07:40;;;;;;;;;;;2.50;53.60;;;;;;4976345;28;20373;-93
2023/03/12 01:10:06;;;;;;;;;;;2.50;53.60;;;;;;4976167;28;19917;-88
2023/03/12 01:12:32;;;;;;;;;;;2.50;53.70;;;;;;4993228;28;19921;-89
2023/03/12 01:14:57;;;;;;;;;;;2.50;53.80;;;;;;4975895;28;19910;-93
2023/03/12 01:17:23;;;;;;;;;;;2.50;54.00;;;;;;4976219;28;19977;-90
2023/03/12 01:19:48;;;;;;;;;;;2.50;54.20;;;;;;4993275;28;19910;-94
2023/03/12 01:22:14;;;;;;;;;;;2.60;54.20;;;;;;4993111;28;19913;-91
2023/03/12 01:24:40;;;;;;;;;;;2.60;54.30;;;;;;4992928;28;19912;-88
2023/03/12 01:27:05;;;;;;;;;;;2.60;54.40;;;;;;4992369;28;19910;-89
2023/03/12 01:29:31;;;;;;;;;;;2.60;54.30;;;;;;4992669;28;20388;-90
2023/03/12 01:31:56;;;;;;;;;;;2.60;54.20;;;;;;4992888;28;19957;-92
2023/03/12 01:34:22;;;;;;;;;;;2.60;54.20;;;;;;4975551;28;19922;-92
2023/03/12 01:36:48;;;;;;;;;;;2.60;54.20;;;;;;4958784;28;19914;-89
2023/03/12 01:39:13;;;;;;;;;;;2.60;54.30;;;;;;4992850;28;19922;-90
2023/03/12 01:41:39;;;;;;;;;;;2.60;54.20;;;;;;4992014;28;19972;-89
2023/03/12 01:44:04;;;;;;;;;;;2.50;54.10;;;;;;4992162;28;19926;-93
2023/03/12 01:46:30;;;;;;;;;;;2.50;54.00;;;;;;4993202;28;19917;-94
2023/03/12 01:48:56;;;;;;;;;;;2.50;54.00;;;;;;4975637;28;19960;-90
2023/03/12 01:51:24;;;;;;;;;;;2.50;53.90;;;;;;4992368;28;20458;-90
2023/03/12 01:53:51;;;;;;;;;;;2.50;53.80;;;;;;4992784;28;19918;-90
2023/03/12 01:56:18;;;;;;;;;;;2.50;53.80;;;;;;4992239;28;20393;-89
2023/03/12 01:58:49;;;;;;;;;;;2.50;53.80;;;;;;4993699;28;19985;-88
2023/03/12 02:01:16;;;;;;;;;;;2.50;54.00;;;;;;4975643;28;20008;-89
2023/03/12 02:03:42;;;;;;;;;;;2.50;54.20;;;;;;4977227;28;20024;-89
2023/03/12 02:06:11;;;;;;;;;;;2.50;54.30;;;;;;4992781;28;20065;-91
2023/03/12 02:08:40;;;;;;;;;;;2.50;54.30;;;;;;4992154;28;19941;-88
2023/03/12 02:11:05;;;;;;;;;;;2.50;54.20;;;;;;4974458;28;19910;-89
2023/03/12 02:13:31;;;;;;;;;;;2.50;54.30;;;;;;4974830;28;19922;-89
2023/03/12 02:15:57;;;;;;;;;;;2.50;54.30;;;;;;4992922;28;19956;-89
2023/03/12 02:18:22;;;;;;;;;;;2.60;54.50;;;;;;4991795;28;20020;-89
2023/03/12 02:21:00;;;;;;;;;;;2.60;54.50;;;;;;4992104;28;19910;-90
2023/03/12 02:23:40;;;;;;;;;;;2.50;54.60;;;;;;4975002;28;20355;-89
2023/03/12 02:26:06;;;;;;;;;;;2.50;54.60;;;;;;4974321;28;19910;-90
2023/03/12 02:28:32;;;;;;;;;;;2.60;54.60;;;;;;4991765;28;19975;-92
2023/03/12 02:31:00;;;;;;;;;;;2.50;54.70;;;;;;4973699;28;20005;-88
2023/03/12 02:33:26;;;;;;;;;;;2.60;54.70;;;;;;4974060;28;20369;-90
2023/03/12 02:35:52;;;;;;;;;;;2.60;54.70;;;;;;4991500;28;19982;-92
2023/03/12 02:38:29;;;;;;;;;;;2.60;54.60;;;;;;4991560;28;19933;-93
2023/03/12 02:40:57;;;;;;;;;;;2.60;54.70;;;;;;4974549;28;19914;-89
2023/03/12 02:43:22;;;;;;;;;;;2.60;54.60;;;;;;4991252;28;20020;-89
2023/03/12 02:45:48;;;;;;;;;;;2.60;54.60;;;;;;4991279;28;20006;-94
2023/03/12 02:48:13;;;;;;;;;;;2.60;54.60;;;;;;4973821;28;19924;-90
2023/03/12 02:50:39;;;;;;;;;;;2.60;54.60;;;;;;4991486;28;19916;-94
2023/03/12 02:53:04;;;;;;;;;;;2.50;54.60;;;;;;4973141;28;19925;-92
2023/03/12 02:55:30;;;;;;;;;;;2.60;54.80;;;;;;4973719;28;20250;-93
2023/03/12 02:57:56;;;;;;;;;;;2.50;54.70;;;;;;4990769;28;19933;-93
2023/03/12 03:00:22;;;;;;;;;;;2.50;54.60;;;;;;4974095;28;19953;-92
2023/03/12 03:02:47;;;;;;;;;;;2.50;54.50;;;;;;4973064;28;20293;-91
2023/03/12 03:05:13;;;;;;;;;;;2.50;54.40;;;;;;4972348;28;20053;-89
2023/03/12 03:07:38;;;;;;;;;;;2.50;54.30;;;;;;4991305;28;19980;-94
2023/03/12 03:10:05;;;;;;;;;;;2.50;54.20;;;;;;4991474;28;20008;-93
2023/03/12 03:12:31;;;;;;;;;;;2.50;54.10;;;;;;4991261;28;20365;-89
2023/03/12 03:14:57;;;;;;;;;;;2.40;54.10;;;;;;4991006;28;19910;-93
2023/03/12 03:17:23;;;;;;;;;;;2.40;54.10;;;;;;4973807;28;19929;-91
2023/03/12 03:19:49;;;;;;;;;;;2.50;54.30;;;;;;4973733;28;19917;-91
2023/03/12 03:22:14;;;;;;;;;;;2.40;54.40;;;;;;4990737;28;19914;-92
2023/03/12 03:24:40;;;;;;;;;;;2.40;54.50;;;;;;4974101;28;20419;-90
2023/03/12 03:27:06;;;;;;;;;;;2.50;54.80;;;;;;4973294;28;20008;-92
2023/03/12 03:29:31;;;;;;;;;;;2.50;55.00;;;;;;4974139;28;19961;-88
2023/03/12 03:31:57;;;;;;;;;;;2.60;55.30;;;;;;4973730;28;19913;-94
2023/03/12 03:34:23;;;;;;;;;;;2.70;55.50;;;;;;4973626;28;19921;-89
2023/03/12 03:36:49;;;;;;;;;;;2.70;55.70;;;;;;4991161;28;19916;-89
2023/03/12 03:39:14;;;;;;;;;;;2.80;55.90;;;;;;4991393;28;19949;-89
2023/03/12 03:41:40;;;;;;;;;;;2.80;55.90;;;;;;4973801;28;19909;-90
2023/03/12 03:44:06;;;;;;;;;;;2.90;55.90;;;;;;4991129;28;20323;-93
2023/03/12 03:46:34;;;;;;;;;;;3.00;56.00;;;;;;4973619;28;20388;-89
2023/03/12 03:49:00;;;;;;;;;;;3.00;56.10;;;;;;4991590;28;19944;-90
2023/03/12 03:51:28;;;;;;;;;;;3.10;56.20;;;;;;4991469;28;19956;-89
2023/03/12 03:53:54;;;;;;;;;;;3.10;56.20;;;;;;4991662;28;20057;-92
2023/03/12 03:56:20;;;;;;;;;;;3.20;56.20;;;;;;4974071;28;19976;-90
2023/03/12 03:58:45;;;;;;;;;;;3.20;56.20;;;;;;4991583;28;19936;-90
2023/03/12 04:01:12;;;;;;;;;;;3.30;56.20;;;;;;4991260;28;20352;-91
2023/03/12 04:03:37;;;;;;;;;;;3.30;56.20;;;;;;4991440;28;20241;-89
2023/03/12 04:06:04;;;;;;;;;;;3.30;56.20;;;;;;4992912;28;19921;-89
2023/03/12 04:08:31;;;;;;;;;;;3.30;56.20;;;;;;4976777;28;20365;-89
2023/03/12 04:10:57;;;;;;;;;;;3.30;56.20;;;;;;4994444;28;20333;-93
2023/03/12 04:13:23;;;;;;;;;;;3.30;56.10;;;;;;4976826;28;19972;-93
2023/03/12 04:15:49;;;;;;;;;;;3.40;56.00;;;;;;4994575;28;19910;-90
2023/03/12 04:18:15;;;;;;;;;;;3.40;55.90;;;;;;4976517;28;19937;-89
2023/03/12 04:20:42;;;;;;;;;;;3.40;55.90;;;;;;4994208;28;19909;-90
2023/03/12 04:23:08;;;;;;;;;;;3.40;55.90;;;;;;4994422;28;19961;-91
2023/03/12 04:25:33;;;;;;;;;;;3.40;56.10;;;;;;4977164;28;19957;-90
2023/03/12 04:28:00;;;;;;;;;;;3.50;56.20;;;;;;4994286;28;20356;-90
2023/03/12 04:30:25;;;;;;;;;;;3.50;56.30;;;;;;4976799;28;19914;-94
2023/03/12 04:32:51;;;;;;;;;;;3.50;56.30;;;;;;4994062;28;19924;-89
2023/03/12 04:35:17;;;;;;;;;;;3.60;56.40;;;;;;4994152;28;19910;-90
2023/03/12 04:37:43;;;;;;;;;;;3.60;56.40;;;;;;4993796;28;19926;-91
2023/03/12 04:40:09;;;;;;;;;;;3.60;56.40;;;;;;4976387;28;19921;-90
2023/03/12 04:42:35;;;;;;;;;;;3.70;56.40;;;;;;4993383;28;20360;-91
2023/03/12 04:45:01;;;;;;;;;;;3.70;56.30;;;;;;4976102;28;20009;-91
2023/03/12 04:47:26;;;;;;;;;;;3.70;56.20;;;;;;4993835;28;19972;-91
2023/03/12 04:49:52;;;;;;;;;;;3.70;56.20;;;;;;4976654;28;20044;-89
2023/03/12 04:52:17;;;;;;;;;;;3.80;56.20;;;;;;4993578;28;19964;-90
2023/03/12 04:54:43;;;;;;;;;;;3.80;56.30;;;;;;4993152;28;19910;-89
2023/03/12 04:57:09;;;;;;;;;;;3.80;56.50;;;;;;4993133;28;19917;-91
2023/03/12 04:59:34;;;;;;;;;;;3.90;56.80;;;;;;4993111;28;19940;-92
2023/03/12 05:02:00;;;;;;;;;;;4.00;57.00;;;;;;4975811;28;19910;-90
2023/03/12 05:04:25;;;;;;;;;;;4.00;57.10;;;;;;4993065;28;20402;-89
2023/03/12 05:06:51;;;;;;;;;;;4.10;57.20;;;;;;4992799;28;20001;-93
2023/03/12 05:09:18;;;;;;;;;;;4.20;57.30;;;;;;4975661;28;20396;-90
2023/03/12 05:11:43;;;;;;;;;;;4.20;57.50;;;;;;4992830;28;19913;-89
2023/03/12 05:14:10;;;;;;;;;;;4.30;57.80;;;;;;4993109;28;19918;-91
2023/03/12 05:16:36;;;;;;;;;;;4.30;57.90;;;;;;4992881;28;19914;-91
2023/03/12 05:19:01;;;;;;;;;;;4.40;57.90;;;;;;4975433;28;19922;-90
2023/03/12 05:21:27;;;;;;;;;;;4.40;57.90;;;;;;4992937;28;20376;-90
2023/03/12 05:23:52;;;;;;;;;;;4.50;58.00;;;;;;4975256;28;19921;-90
2023/03/12 05:26:21;;;;;;;;;;;4.50;58.10;;;;;;4975022;28;19914;-93
2023/03/12 05:28:47;;;;;;;;;;;4.60;58.00;;;;;;4992307;28;19914;-93
2023/03/12 05:31:13;;;;;;;;;;;4.60;58.10;;;;;;4993498;28;20376;-93
2023/03/12 05:33:39;;;;;;;;;;;4.70;58.00;;;;;;4974983;28;19913;-88
2023/03/12 05:36:05;;;;;;;;;;;4.70;58.00;;;;;;4992693;28;19921;-93
2023/03/12 05:38:30;;;;;;;;;;;4.80;58.00;;;;;;4992532;28;19929;-93
2023/03/12 05:40:58;;;;;;;;;;;4.80;58.10;;;;;;4975135;28;19914;-90
2023/03/12 05:43:23;;;;;;;;;;;4.80;58.10;;;;;;4974656;28;19921;-88
2023/03/12 05:45:49;;;;;;;;;;;4.80;58.10;;;;;;4991851;28;19914;-88
2023/03/12 05:48:15;;;;;;;;;;;4.80;58.10;;;;;;4992250;28;19917;-88
2023/03/12 05:50:41;;;;;;;;;;;4.80;58.10;;;;;;4992473;28;19914;-89
2023/03/12 05:53:06;;;;;;;;;;;4.90;58.10;;;;;;4974626;28;19949;-90
2023/03/12 05:55:36;;;;;;;;;;;4.80;58.10;;;;;;4992042;28;19913;-89
2023/03/12 05:58:02;;;;;;;;;;;4.90;58.20;;;;;;4992260;28;19926;-89
2023/03/12 06:00:29;;;;;;;;;;;4.90;58.30;;;;;;4991990;28;19913;-88
2023/03/12 06:02:54;;;;;;;;;;;5.00;58.40;;;;;;4974085;28;19934;-87
2023/03/12 06:05:20;;;;;;;;;;;5.00;58.40;;;;;;4992047;28;20269;-88
2023/03/12 06:07:46;;;;;;;;;;;5.00;58.50;;;;;;4991975;28;19924;-88
2023/03/12 06:10:11;;;;;;;;;;;5.10;58.60;;;;;;4992373;28;19920;-90
2023/03/12 06:12:37;;;;;;;;;;;5.20;58.70;;;;;;4991848;28;19918;-88
2023/03/12 06:15:03;;;;;;;;;;;5.30;58.70;;;;;;4991686;28;19914;-89
2023/03/12 06:17:30;;;;;;;;;;;5.40;58.80;;;;;;4974117;28;20373;-89
2023/03/12 06:19:56;;;;;;;;;;;5.40;58.90;;;;;;4991899;28;19910;-90
2023/03/12 06:22:21;;;;;;;;;;;5.50;58.90;;;;;;4991738;28;20077;-90
2023/03/12 06:24:47;;;;;;;;;;;5.60;59.00;;;;;;5007764;28;19914;-89
2023/03/12 06:27:13;;;;;;;;;;;5.70;59.00;;;;;;5011063;28;19916;-91
2023/03/12 06:29:39;;;;;;;;;;;5.80;59.10;;;;;;5008284;28;20390;-90
2023/03/12 06:32:05;;;;;;;;;;;5.90;59.10;;;;;;5011372;28;19995;-93
2023/03/12 06:34:31;;;;;;;;;;;6.00;59.20;;;;;;5009711;28;20316;-89
2023/03/12 06:36:56;;;;;;;;;;;6.00;59.20;;;;;;4991250;28;19920;-89
2023/03/12 06:39:22;;;;;;;;;;;6.10;59.30;;;;;;4979769;28;20380;-92
2023/03/12 06:41:47;;;;;;;;;;;6.20;59.30;;;;;;4991883;28;20372;-91
2023/03/12 06:44:13;;;;;;;;;;;6.30;59.40;;;;;;5011047;28;20012;-90
2023/03/12 06:46:43;;;;;;;;;;;6.40;59.50;;;;;;5011123;28;19914;-93
2023/03/12 06:49:09;;;;;;;;;;;6.50;59.60;;;;;;5011210;28;19917;-92
2023/03/12 06:51:34;;;;;;;;;;;6.60;59.70;;;;;;5008384;28;19917;-89
2023/03/12 06:54:01;;;;;;;;;;;6.70;59.60;;;;;;5004927;28;19925;-90
2023/03/12 06:56:27;;;;;;;;;;;6.80;59.70;;;;;;4990219;28;19921;-89
2023/03/12 06:58:53;;;;;;;;;;;6.90;59.70;;;;;;4996218;28;20365;-89
2023/03/12 07:01:18;;;;;;;;;;;7.00;59.70;;;;;;5024365;28;20323;-87
2023/03/12 07:03:44;;;;;;;;;;;7.20;59.70;;;;;;5010891;28;19921;-91
2023/03/12 07:06:17;;;;;;;;;;;7.30;59.80;;;;;;5030153;28;20291;-91
2023/03/12 07:08:43;;;;;;;;;;;7.40;59.70;;;;;;5028735;28;19929;-89
2023/03/12 07:11:09;;;;;;;;;;;7.60;59.50;;;;;;5026842;28;19909;-89
2023/03/12 07:13:34;;;;;;;;;;;7.70;59.30;;;;;;5009085;28;19932;-89
2023/03/12 07:16:00;;;;;;;;;;;7.70;59.00;;;;;;5028380;28;19940;-88
2023/03/12 07:18:26;;;;;;;;;;;7.80;59.00;;;;;;5029923;28;19925;-89
2023/03/12 07:20:52;;;;;;;;;;;7.80;59.00;;;;;;5029650;28;19987;-90
2023/03/12 07:23:18;;;;;;;;;;;7.80;58.90;;;;;;5008226;28;20005;-87
2023/03/12 07:25:44;;;;;;;;;;;7.90;59.10;;;;;;5028115;28;19963;-91
2023/03/12 07:28:10;;;;;;;;;;;7.90;59.20;;;;;;5027862;28;19917;-89
2023/03/12 07:30:36;;;;;;;;;;;8.00;59.40;;;;;;5028500;28;20076;-88
2023/03/12 07:33:05;;;;;;;;;;;8.10;59.50;;;;;;5005039;28;19918;-89
2023/03/12 07:35:31;;;;;;;;;;;8.30;59.60;;;;;;5007669;28;19910;-90
2023/03/12 07:37:57;;;;;;;;;;;8.40;59.50;;;;;;5010602;28;19926;-88
2023/03/12 07:40:23;;;;;;;;;;;8.40;59.30;;;;;;5013045;28;20352;-93
2023/03/12 07:42:49;;;;;;;;;;;8.50;59.30;;;;;;4993591;28;19921;-89
2023/03/12 07:45:14;;;;;;;;;;;8.50;59.00;;;;;;5014912;28;19917;-92
2023/03/12 07:47:40;;;;;;;;;;;8.40;58.90;;;;;;5015056;28;19924;-89
2023/03/12 07:50:06;;;;;;;;;;;8.40;59.10;;;;;;5027749;28;19920;-92
2023/03/12 07:52:32;;;;;;;;;;;8.50;59.10;;;;;;5019234;28;19932;-88
2023/03/12 07:54:57;;;;;;;;;;;8.50;59.00;;;;;;4996835;28;19909;-89
2023/03/12 07:57:23;;;;;;;;;;;8.50;59.10;;;;;;5014655;28;19979;-87
2023/03/12 07:59:49;;;;;;;;;;;8.50;59.10;;;;;;5014244;28;20288;-91
2023/03/12 08:02:14;;;;;;;;;;;8.60;59.30;;;;;;4993372;28;19928;-88
2023/03/12 08:04:40;;;;;;;;;;;8.60;59.40;;;;;;5013509;28;19914;-89
2023/03/12 08:07:05;;;;;;;;;;;8.70;59.90;;;;;;4995993;28;20008;-88
2023/03/12 08:09:32;;;;;;;;;;;8.90;60.20;;;;;;5013742;28;20361;-88
2023/03/12 08:11:57;;;;;;;;;;;9.10;60.30;;;;;;5010544;28;19964;-90
2023/03/12 08:14:23;;;;;;;;;;;9.30;60.70;;;;;;4996543;28;19991;-87
2023/03/12 08:16:48;;;;;;;;;;;9.50;60.60;;;;;;5013513;28;19913;-89
2023/03/12 08:19:14;;;;;;;;;;;9.60;60.60;;;;;;5014058;28;19933;-93
2023/03/12 08:21:40;;;;;;;;;;;9.70;60.40;;;;;;4995807;28;19914;-88
2023/03/12 08:24:05;;;;;;;;;;;9.80;60.20;;;;;;4995458;28;19913;-88
2023/03/12 08:26:31;;;;;;;;;;;9.90;60.10;;;;;;5013025;28;19920;-88
2023/03/12 08:28:59;;;;;;;;;;;10.10;59.90;;;;;;4995228;28;19921;-90
2023/03/12 08:31:25;;;;;;;;;;;10.20;60.20;;;;;;5013155;28;19920;-88
2023/03/12 08:33:50;;;;;;;;;;;10.30;60.20;;;;;;5013544;28;19920;-94
2023/03/12 08:36:16;;;;;;;;;;;10.50;60.40;;;;;;5013753;28;19913;-90
2023/03/12 08:38:42;;;;;;;;;;;10.70;60.70;;;;;;4995285;28;20732;-90
2023/03/12 08:41:09;;;;;;;;;;;10.80;60.10;;;;;;4989720;28;19922;-93
2023/03/12 08:43:35;;;;;;;;;;;11.00;60.30;;;;;;4986129;28;20079;-96
2023/03/12 08:46:02;;;;;;;;;;;11.20;60.20;;;;;;4992451;28;20483;-87
2023/03/12 08:48:31;;;;;;;;;;;11.30;60.10;;;;;;5013314;28;20268;-90
2023/03/12 08:50:58;;;;;;;;;;;11.50;60.30;;;;;;5015979;28;19913;-93
2023/03/12 08:53:24;;;;;;;;;;;11.60;60.20;;;;;;5010075;28;19924;-90
2023/03/12 08:55:53;;;;;;;;;;;11.70;59.50;;;;;;5016253;28;19916;-93
2023/03/12 08:58:19;;;;;;;;;;;11.80;59.10;;;;;;5020850;28;19948;-89
2023/03/12 09:00:44;;;;;;;;;;;11.80;57.70;;;;;;5011862;28;19910;-88
2023/03/12 09:03:13;;;;;;;;;;;11.70;56.80;;;;;;4991518;28;19921;-92
2023/03/12 09:05:42;;;;;;;;;;;11.70;57.20;;;;;;5012521;28;19913;-90
2023/03/12 09:08:08;;;;;;;;;;;11.70;58.10;;;;;;5032326;28;20364;-93
2023/03/12 09:10:34;;;;;;;;;;;11.80;57.60;;;;;;5014756;28;20287;-90
2023/03/12 09:13:00;;;;;;;;;;;11.80;57.60;;;;;;5012947;28;19918;-94
2023/03/12 09:15:26;;;;;;;;;;;11.80;57.30;;;;;;5013331;28;19996;-93
2023/03/12 09:17:52;;;;;;;;;;;11.80;57.70;;;;;;4994341;28;20265;-93
2023/03/12 09:20:18;;;;;;;;;;;11.80;57.00;;;;;;5011732;28;19910;-89
2023/03/12 09:22:44;;;;;;;;;;;11.80;56.80;;;;;;5010955;28;20359;-90
2023/03/12 09:25:10;;;;;;;;;;;11.70;56.30;;;;;;5011049;28;19919;-90
2023/03/12 09:27:36;;;;;;;;;;;11.60;57.10;;;;;;4995161;28;19917;-94
2023/03/12 09:30:02;;;;;;;;;;;11.40;57.40;;;;;;4994658;28;20513;-90
2023/03/12 09:32:27;;;;;;;;;;;11.30;57.70;;;;;;4993257;28;19953;-90
2023/03/12 09:34:53;;;;;;;;;;;11.30;58.30;;;;;;5010516;28;19909;-90
2023/03/12 09:37:18;;;;;;;;;;;11.30;58.50;;;;;;5008958;28;19917;-88
2023/03/12 09:39:44;;;;;;;;;;;11.20;58.80;;;;;;5008493;28;19956;-90
2023/03/12 09:42:19;;;;;;;;;;;11.30;59.00;;;;;;4993308;28;20272;-90
2023/03/12 09:44:46;;;;;;;;;;;11.20;58.90;;;;;;5009236;28;19980;-88
2023/03/12 09:47:20;;;;;;;;;;;11.10;58.40;;;;;;4993523;28;20545;-95
2023/03/12 09:49:48;;;;;;;;;;;10.90;58.30;;;;;;5009581;28;19914;-90
2023/03/12 09:52:19;;;;;;;;;;;10.80;58.60;;;;;;5009716;28;19910;-89
2023/03/12 09:54:51;;;;;;;;;;;10.70;58.80;;;;;;5006889;28;20004;-91
2023/03/12 09:57:21;;;;;;;;;;;10.60;59.10;;;;;;4998643;28;19917;-90
2023/03/12 09:59:47;;;;;;;;;;;10.70;59.60;;;;;;4996747;28;19920;-90
2023/03/12 10:02:25;;;;;;;;;;;10.80;60.40;;;;;;5001232;28;19917;-90
2023/03/12 10:04:54;;;;;;;;;;;10.90;60.60;;;;;;5004615;28;19937;-91
2023/03/12 10:07:26;;;;;;;;;;;10.80;60.10;;;;;;5000461;28;19917;-90
2023/03/12 10:10:02;;;;;;;;;;;10.80;59.80;;;;;;4992843;28;19914;-91
2023/03/12 10:12:53;;;;;;;;;;;10.70;59.60;;;;;;4998934;28;19987;-89
2023/03/12 10:15:48;;;;;;;;;;;;;;;;;;;;;
2023/03/12 10:18:33;;;;;;;;;;;10.50;59.50;;;;;;5004622;28;20276;-91
2023/03/12 10:21:10;;;;;;;;;;;10.40;59.60;;;;;;5005725;28;19929;-87
2023/03/12 10:23:54;;;;;;;;;;;10.30;60.00;;;;;;5003846;28;20016;-92
2023/03/12 10:26:24;;;;;;;;;;;10.30;60.40;;;;;;4991578;28;19984;-89
2023/03/12 10:28:52;;;;;;;;;;;10.30;60.60;;;;;;5010183;28;19917;-89
2023/03/12 10:31:25;;;;;;;;;;;10.20;60.80;;;;;;5003890;28;20353;-91
2023/03/12 10:34:00;;;;;;;;;;;10.20;61.00;;;;;;4991239;28;19918;-92
2023/03/12 10:36:28;;;;;;;;;;;10.20;60.90;;;;;;5000000;28;20473;-94
2023/03/12 10:38:54;;;;;;;;;;;10.10;61.20;;;;;;4991195;28;19936;-93
2023/03/12 10:41:24;;;;;;;;;;;10.00;61.30;;;;;;4981595;28;19918;-91
2023/03/12 10:43:49;;;;;;;;;;;10.10;61.60;;;;;;5009248;28;19921;-89
2023/03/12 10:46:32;;;;;;;;;;;10.10;61.60;;;;;;4990109;28;19924;-89
2023/03/12 10:49:17;;;;;;;;;;;10.10;61.60;;;;;;5009100;28;20368;-90
2023/03/12 10:51:52;;;;;;;;;;;10.10;61.60;;;;;;5001921;28;19957;-90
2023/03/12 10:54:22;;;;;;;;;;;10.00;61.50;;;;;;5008991;28;19964;-89
2023/03/12 10:56:49;;;;;;;;;;;10.00;61.90;;;;;;5003781;28;19914;-89
2023/03/12 10:59:19;;;;;;;;;;;9.90;61.90;;;;;;5007276;28;19949;-90
2023/03/12 11:01:47;;;;;;;;;;;10.00;62.10;;;;;;4986385;28;19921;-88
2023/03/12 11:04:17;;;;;;;;;;;10.00;62.30;;;;;;5006539;28;19933;-88
2023/03/12 11:07:01;;;;;;;;;;;10.00;62.20;;;;;;5007362;28;19940;-89
2023/03/12 11:09:26;;;;;;;;;;;10.00;62.20;;;;;;5005089;28;19917;-90
2023/03/12 11:11:52;;;;;;;;;;;9.90;62.10;;;;;;4990259;28;19917;-91
2023/03/12 11:14:18;;;;;;;;;;;9.90;62.30;;;;;;4989064;28;20008;-92
2023/03/12 11:16:44;;;;;;;;;;;9.90;62.60;;;;;;4991164;28;19920;-90
2023/03/12 11:19:13;;;;;;;;;;;10.00;62.30;;;;;;5003273;28;19933;-89
2023/03/12 11:21:52;;;;;;;;;;;10.10;62.60;;;;;;5005223;28;20023;-89
2023/03/12 11:24:18;;;;;;;;;;;10.20;63.00;;;;;;5008874;28;19921;-90
2023/03/12 11:26:49;;;;;;;;;;;10.20;62.90;;;;;;5009012;28;19913;-89
2023/03/12 11:29:17;;;;;;;;;;;10.30;62.90;;;;;;5007543;28;19971;-88
2023/03/12 11:32:03;;;;;;;;;;;10.30;62.90;;;;;;5004094;28;19956;-89
2023/03/12 11:34:30;;;;;;;;;;;10.40;62.80;;;;;;4992614;28;19960;-89
2023/03/12 11:37:11;;;;;;;;;;;10.50;62.90;;;;;;5007844;28;19968;-90
2023/03/12 11:39:55;;;;;;;;;;;10.50;62.80;;;;;;5007279;28;19933;-91
2023/03/12 11:42:40;;;;;;;;;;;10.50;62.80;;;;;;4986683;28;19932;-88
2023/03/12 11:45:05;;;;;;;;;;;10.50;62.80;;;;;;5006851;28;19929;-90
2023/03/12 11:47:34;;;;;;;;;;;10.40;62.90;;;;;;5008294;28;19982;-89
2023/03/12 11:49:59;;;;;;;;;;;10.40;62.70;;;;;;4989774;28;20335;-89
2023/03/12 11:52:36;;;;;;;;;;;10.50;62.70;;;;;;4991474;28;20710;-88
2023/03/12 11:55:05;;;;;;;;;;;10.50;62.90;;;;;;4991601;28;20384;-90
2023/03/12 11:57:30;;;;;;;;;;;10.60;63.40;;;;;;4998810;28;19918;-90
2023/03/12 12:00:11;;;;;;;;;;;10.70;63.50;;;;;;4992616;28;20607;-90
2023/03/12 12:02:52;;;;;;;;;;;10.80;63.10;;;;;;4999585;28;19922;-90
2023/03/12 12:05:27;;;;;;;;;;;10.80;62.80;;;;;;5003633;28;19995;-90
2023/03/12 12:07:56;;;;;;;;;;;10.70;63.10;;;;;;4995907;28;19925;-89
2023/03/12 12:10:29;;;;;;;;;;;10.70;63.00;;;;;;4986638;28;19921;-92
2023/03/12 12:13:15;;;;;;;;;;;10.80;63.00;;;;;;5008054;28;19924;-89
2023/03/12 12:15:56;;;;;;;;;;;10.80;62.80;;;;;;4990216;28;20202;-91
2023/03/12 12:18:34;;;;;;;;;;;10.80;63.10;;;;;;4991417;28;19926;-89
2023/03/12 12:21:06;;;;;;;;;;;10.80;63.10;;;;;;4989063;28;19925;-90
2023/03/12 12:23:38;;;;;;;;;;;10.80;63.50;;;;;;4991375;28;20340;-89
2023/03/12 12:26:15;;;;;;;;;;;10.90;63.80;;;;;;4977804;28;19914;-91
2023/03/12 12:28:41;;;;;;;;;;;11.00;63.50;;;;;;4995392;28;20505;-91
2023/03/12 12:31:13;;;;;;;;;;;11.00;63.40;;;;;;4994584;28;19952;-90
2023/03/12 12:34:01;;;;;;;;;;;11.10;63.40;;;;;;5011397;28;20355;-92
2023/03/12 12:36:30;;;;;;;;;;;11.10;63.30;;;;;;5010023;28;19944;-92
2023/03/12 12:39:04;;;;;;;;;;;11.00;63.40;;;;;;5010463;28;20394;-89
2023/03/12 12:41:50;;;;;;;;;;;11.10;63.40;;;;;;5012234;28;20335;-92
2023/03/12 12:44:23;;;;;;;;;;;11.20;63.40;;;;;;5011301;28;20475;-92
2023/03/12 12:46:51;;;;;;;;;;;11.20;63.60;;;;;;4994817;28;19909;-90
2023/03/12 12:49:40;;;;;;;;;;;11.30;63.90;;;;;;5013143;28;20360;-90
2023/03/12 12:52:07;;;;;;;;;;;11.40;63.90;;;;;;4998842;28;19960;-89
2023/03/12 12:54:43;;;;;;;;;;;11.40;63.70;;;;;;5011577;28;20329;-90
2023/03/12 12:57:28;;;;;;;;;;;11.50;63.80;;;;;;5013129;28;19956;-91
2023/03/12 13:00:14;;;;;;;;;;;11.40;63.80;;;;;;5012707;28;20296;-90
2023/03/12 13:02:41;;;;;;;;;;;11.40;64.00;;;;;;5012568;28;19980;-90
2023/03/12 13:05:20;;;;;;;;;;;11.40;63.90;;;;;;5012412;28;19920;-91
2023/03/12 13:07:45;;;;;;;;;;;11.50;64.00;;;;;;5011271;28;19928;-89
2023/03/12 13:10:30;;;;;;;;;;;11.70;64.10;;;;;;5012653;28;19996;-88
2023/03/12 13:12:56;;;;;;;;;;;11.80;64.00;;;;;;4994611;28;19917;-91
2023/03/12 13:15:33;;;;;;;;;;;11.80;63.90;;;;;;5011680;28;19909;-90
2023/03/12 13:17:58;;;;;;;;;;;11.90;63.70;;;;;;4994416;28;19926;-90
2023/03/12 13:20:29;;;;;;;;;;;11.80;63.50;;;;;;4994797;28;19963;-91
2023/03/12 13:22:55;;;;;;;;;;;11.80;63.50;;;;;;5010943;28;19921;-92
2023/03/12 13:25:26;;;;;;;;;;;11.80;63.60;;;;;;5012793;28;19921;-90
2023/03/12 13:27:57;;;;;;;;;;;11.90;63.70;;;;;;5011317;28;19972;-90
2023/03/12 13:30:45;;;;;;;;;;;12.00;64.00;;;;;;5012831;28;19909;-92
2023/03/12 13:33:15;;;;;;;;;;;12.10;64.10;;;;;;4999011;28;19924;-91
2023/03/12 13:35:41;;;;;;;;;;;12.20;64.40;;;;;;4994838;28;19910;-91
2023/03/12 13:38:11;;;;;;;;;;;12.30;64.40;;;;;;4994181;28;20392;-91
2023/03/12 13:40:38;;;;;;;;;;;12.30;64.50;;;;;;5011888;28;19909;-93
2023/03/12 13:43:04;;;;;;;;;;;12.50;64.50;;;;;;4994388;28;19923;-91
2023/03/12 13:45:30;;;;;;;;;;;12.60;64.40;;;;;;4994356;28;19909;-90
2023/03/12 13:47:58;;;;;;;;;;;12.70;64.60;;;;;;4994113;28;20040;-91
2023/03/12 13:50:23;;;;;;;;;;;12.70;64.50;;;;;;5010432;28;20027;-90
2023/03/12 13:52:59;;;;;;;;;;;12.80;64.50;;;;;;5012005;28;19976;-92
2023/03/12 13:55:26;;;;;;;;;;;12.80;64.40;;;;;;5010669;28;19971;-91
2023/03/12 13:57:55;;;;;;;;;;;12.80;64.50;;;;;;5010572;28;19932;-90
2023/03/12 14:00:26;;;;;;;;;;;12.90;64.50;;;;;;5012401;28;19939;-91
2023/03/12 14:02:53;;;;;;;;;;;12.90;64.60;;;;;;5012122;28;19926;-89
2023/03/12 14:05:19;;;;;;;;;;;13.00;64.70;;;;;;5011580;28;19909;-90
2023/03/12 14:07:59;;;;;;;;;;;13.00;64.50;;;;;;4993855;28;19928;-92
2023/03/12 14:10:28;;;;;;;;;;;13.10;64.50;;;;;;5011698;28;19914;-92
2023/03/12 14:13:12;;;;;;;;;;;13.00;64.50;;;;;;5010473;28;19918;-89
2023/03/12 14:15:43;;;;;;;;;;;13.10;64.30;;;;;;5010268;28;19916;-90
2023/03/12 14:18:19;;;;;;;;;;;13.20;64.60;;;;;;5009818;28;19929;-92
2023/03/12 14:20:51;;;;;;;;;;;13.30;64.60;;;;;;5011579;28;19913;-90
2023/03/12 14:23:17;;;;;;;;;;;13.30;64.30;;;;;;5011781;28;19928;-89
2023/03/12 14:25:43;;;;;;;;;;;13.30;64.40;;;;;;4994506;28;20288;-88
2023/03/12 14:28:19;;;;;;;;;;;13.40;64.50;;;;;;5009728;28;19917;-91
2023/03/12 14:30:57;;;;;;;;;;;13.40;64.20;;;;;;5011699;28;19949;-91
2023/03/12 14:33:23;;;;;;;;;;;13.50;64.30;;;;;;5010513;28;19923;-92